Main page
METAR-TAF:

METAR-TAF

Airports :

Bristol Airport

Bristol, England

latitude: 51-23N, longitude: 002-43W, elevation: 189 m

Current weather observation

The report was made 44 minutes ago, at 20:50 UTC
Wind 11 kt from the West
Temperature 10°C
Humidity 100%
Pressure 1032 hPa
Visibility 10 km or more

METAR: EGGD 232050Z AUTO 27011KT 9999 NCD 10/10 Q1032

Time: 22:34 (21:34 UTC)

Forecast

The report was made 4 hours and 36 minutes ago, at 16:58 UTC
Forecast valid from 23 at 18 UTC to 24 at 18 UTC
Wind 12 kt from the West/Southwest
Visibility 10 km or more
Few clouds at a height of 2000 ft
Temporary
from 23 at 22 UTC to 24 at 10 UTC
Visibility: 1200 m
Broken clouds at a height of 200 ft
mist
Probability 30% :
Temporary
from 24 at 03 UTC to 24 at 09 UTC
Visibility: 0200 m
fog

TAF: EGGD 231658Z 2318/2418 25012KT 9999 FEW020 TEMPO 2322/2410 1200 BR BKN002 PROB30 TEMPO 2403/2409 0200 FG VV///

Weather observations and forecasts of more than 4000 airports (METAR and TAF reports).

The available stations are represented by yellow and red dots on the map.

Hover mouse over dot to see the name of the station.

Then click to see weather observations and forecasts.

To change the map : click on the green buttons with a black cross to zoom in, on the green button with a dash to zoom out, or on the green arrows for adjacent maps.


METAR-TAF: